Time;durP1;ratioP1;P1;durP2;ratioP2;P2;SDS_P1;SDS_P2;PMS_P1;PMS_P2;Temp;Humidity;BMP_temperature;BMP_pressure;BME280_temperature;BME280_humidity;BME280_pressure;Samples;Min_cycle;Max_cycle;Signal;HPM_P1;HPM_P2
2023/07/07 07:11:25;;;;;;;;;11.00;8.00;;;;;28.71;43.09;101494.75;6355621;22;49783;-69
2023/07/07 07:13:50;;;;;;;;;4.75;4.75;;;;;27.94;43.11;101488.06;6291908;22;1499633;-66
2023/07/07 07:16:16;;;;;;;;;0.75;0.00;;;;;28.08;43.22;101492.88;6358863;22;49990;-68
2023/07/07 07:18:41;;;;;;;;;5.50;5.25;;;;;28.16;43.17;101488.06;6359828;22;49926;-68
2023/07/07 07:21:07;;;;;;;;;8.25;8.25;;;;;28.24;42.79;101489.50;6359038;22;62824;-69
2023/07/07 07:23:32;;;;;;;;;9.25;6.50;;;;;28.32;42.93;101481.13;6358520;22;65778;-69
2023/07/07 07:25:57;;;;;;;;;6.00;5.75;;;;;28.46;42.72;101481.41;6358499;22;49979;-69
2023/07/07 07:28:23;;;;;;;;;10.25;8.50;;;;;28.58;43.00;101484.56;6359144;22;52169;-69
2023/07/07 07:30:48;;;;;;;;;12.50;8.50;;;;;28.76;42.05;101481.06;6356981;22;50497;-69
2023/07/07 07:33:19;;;;;;;;;7.50;7.50;;;;;29.18;41.94;101486.41;6359302;22;49697;-68
2023/07/07 07:35:45;;;;;;;;;10.25;6.25;;;;;28.65;42.09;101486.03;6360174;22;49774;-69
2023/07/07 07:38:10;;;;;;;;;8.25;6.50;;;;;28.95;41.95;101491.94;6359311;22;49821;-69
2023/07/07 07:40:36;;;;;;;;;4.50;4.50;;;;;29.04;41.73;101483.44;6357967;22;49915;-69
2023/07/07 07:43:01;;;;;;;;;8.25;6.00;;;;;29.19;41.13;101485.47;6359516;22;49640;-68
2023/07/07 07:45:27;;;;;;;;;11.50;9.75;;;;;29.26;41.85;101492.34;6358468;22;49939;-69
2023/07/07 07:47:52;;;;;;;;;8.25;8.00;;;;;29.32;41.62;101483.94;6359409;22;49849;-68
2023/07/07 07:50:19;;;;;;;;;7.25;7.25;;;;;29.40;41.31;101488.13;6358529;22;49671;-68
2023/07/07 07:52:45;;;;;;;;;8.00;5.50;;;;;29.26;41.20;101488.78;6359413;22;49738;-68
2023/07/07 07:55:10;;;;;;;;;8.75;5.50;;;;;29.28;40.75;101490.44;6359470;22;49716;-69
2023/07/07 07:57:35;;;;;;;;;10.50;7.50;;;;;29.33;40.52;101485.69;6360072;22;49987;-69
2023/07/07 08:00:01;;;;;;;;;8.25;6.50;;;;;29.47;40.92;101485.06;6359777;22;49922;-68
2023/07/07 08:02:26;;;;;;;;;7.00;5.50;;;;;29.68;40.85;101483.22;6359489;22;49599;-69
2023/07/07 08:04:52;;;;;;;;;8.75;5.25;;;;;29.76;40.20;101482.84;6358428;22;49680;-68
2023/07/07 08:07:17;;;;;;;;;10.75;10.25;;;;;29.80;40.00;101484.44;6330688;22;50013;-68
2023/07/07 08:09:42;;;;;;;;;8.00;7.50;;;;;29.93;39.47;101486.50;6356897;22;70736;-68
2023/07/07 08:12:09;;;;;;;;;4.75;4.50;;;;;30.41;39.69;101492.31;6359471;22;49770;-68
2023/07/07 08:14:36;;;;;;;;;11.50;10.50;;;;;30.23;39.50;101494.09;6359577;22;50038;-68
2023/07/07 08:17:10;;;;;;;;;8.00;8.00;;;;;30.92;39.13;101496.03;6358512;22;49891;-68
2023/07/07 08:19:38;;;;;;;;;10.50;5.00;;;;;30.84;39.19;101501.84;6359185;22;49762;-68
2023/07/07 08:22:05;;;;;;;;;6.00;6.00;;;;;30.95;39.36;101501.28;6358127;22;49845;-68
2023/07/07 08:24:36;;;;;;;;;5.50;5.50;;;;;31.28;38.34;101502.25;6357315;22;49740;-68
2023/07/07 08:27:01;;;;;;;;;5.00;5.00;;;;;30.83;37.86;101501.94;6357660;22;49636;-68
2023/07/07 08:29:27;;;;;;;;;6.25;5.00;;;;;30.80;37.24;101491.25;6358184;22;49719;-68
2023/07/07 08:31:52;;;;;;;;;9.75;7.50;;;;;31.03;37.42;101493.63;6358094;22;68327;-68
2023/07/07 08:34:18;;;;;;;;;3.75;3.75;;;;;31.09;36.81;101498.72;6359290;22;49787;-68
2023/07/07 08:36:44;;;;;;;;;7.25;6.50;;;;;31.05;36.51;101505.25;6357945;22;49671;-68
2023/07/07 08:39:20;;;;;;;;;5.25;4.00;;;;;31.73;35.26;101499.78;6358413;22;50233;-68
2023/07/07 08:41:59;;;;;;;;;7.25;6.25;;;;;31.77;35.68;101499.56;6359525;22;49709;-67
2023/07/07 08:44:27;;;;;;;;;5.50;5.00;;;;;31.39;35.70;101498.06;6359645;22;49794;-68
2023/07/07 08:47:17;;;;;;;;;5.75;5.00;;;;;31.87;35.48;101494.50;6359321;22;49659;-67
2023/07/07 08:50:02;;;;;;;;;3.50;1.75;;;;;31.09;35.16;101496.03;6357648;22;50600;-66
2023/07/07 08:52:41;;;;;;;;;5.25;4.50;;;;;31.87;35.31;101492.66;6358365;22;49591;-68
2023/07/07 08:55:29;;;;;;;;;6.75;6.25;;;;;31.91;35.63;101487.91;6359165;22;50015;-67
2023/07/07 08:58:02;;;;;;;;;6.25;3.25;;;;;31.77;35.33;101485.13;6359516;22;49696;-67
2023/07/07 09:00:46;;;;;;;;;6.00;5.00;;;;;32.22;34.82;101486.13;6357892;22;49783;-67
2023/07/07 09:03:45;;;;;;;;;4.50;4.50;;;;;32.18;35.24;101508.06;6359395;22;50017;-67
2023/07/07 09:06:21;;;;;;;;;7.75;6.50;;;;;32.13;35.21;101492.97;6356564;22;49596;-64
2023/07/07 09:08:56;;;;;;;;;1.75;1.75;;;;;32.15;35.94;101497.38;6359291;22;50029;-65
2023/07/07 09:11:35;;;;;;;;;9.75;5.50;;;;;32.17;35.88;101478.28;6359356;22;50631;-68
2023/07/07 09:14:01;;;;;;;;;7.75;5.00;;;;;31.68;36.33;101500.03;6358561;22;49634;-65
2023/07/07 09:16:29;;;;;;;;;4.50;2.00;;;;;31.64;35.49;101498.44;6357780;22;49810;-65
2023/07/07 09:19:18;;;;;;;;;3.50;3.50;;;;;32.49;35.53;101500.84;6359162;22;49644;-64
2023/07/07 09:21:50;;;;;;;;;7.25;5.00;;;;;32.59;35.84;101491.19;6359073;22;50488;-66
2023/07/07 09:24:36;;;;;;;;;6.25;4.50;;;;;32.81;34.68;101496.19;6358474;22;49646;-66
2023/07/07 09:27:12;;;;;;;;;3.25;0.75;;;;;32.95;35.65;101489.97;6355958;22;49691;-67
2023/07/07 09:29:38;;;;;;;;;4.00;4.00;;;;;32.69;34.72;101486.06;6359583;22;49599;-66
2023/07/07 09:32:04;;;;;;;;;4.25;4.25;;;;;32.73;35.07;101479.50;6357734;22;49989;-66
2023/07/07 09:34:32;;;;;;;;;7.50;5.25;;;;;33.14;35.26;101476.97;6359380;22;49599;-66
2023/07/07 09:37:04;;;;;;;;;7.00;6.50;;;;;33.73;33.75;101474.16;6357812;22;49741;-66
2023/07/07 09:40:00;;;;;;;;;4.50;3.00;;;;;33.84;33.48;101468.88;6358100;22;49953;-66
2023/07/07 09:42:28;;;;;;;;;9.50;5.00;;;;;33.27;33.37;101468.91;6359429;22;50504;-67
2023/07/07 09:45:48;;;;;;;;;9.25;7.50;;;;;34.19;32.70;101471.16;6357627;22;49824;-67
2023/07/07 09:48:27;;;;;;;;;7.75;5.50;;;;;33.57;32.95;101464.25;6352867;22;50023;-67
2023/07/07 09:51:04;;;;;;;;;6.25;2.25;;;;;34.47;33.16;101462.91;6358018;22;49892;-65
2023/07/07 09:53:34;;;;;;;;;9.00;6.25;;;;;34.23;32.91;101465.38;6358312;22;50672;-67
2023/07/07 09:56:00;;;;;;;;;9.00;9.00;;;;;33.95;33.29;101462.75;6357251;22;49866;-65
2023/07/07 09:58:26;;;;;;;;;10.50;9.50;;;;;33.79;32.54;101462.88;6357364;22;49788;-67
2023/07/07 10:00:58;;;;;;;;;14.75;10.25;;;;;34.38;32.51;101453.50;6357509;22;49977;-64
2023/07/07 10:03:41;;;;;;;;;5.00;3.00;;;;;34.32;32.00;101462.03;6358348;22;50733;-66
2023/07/07 10:06:14;;;;;;;;;11.00;9.75;;;;;34.36;32.31;101458.16;6357782;22;49816;-66
2023/07/07 10:08:39;;;;;;;;;7.50;7.50;;;;;33.75;32.98;101458.59;6358426;22;49921;-67
2023/07/07 10:11:23;;;;;;;;;3.50;3.50;;;;;34.34;31.76;101438.28;6357753;22;59979;-67
2023/07/07 10:13:50;;;;;;;;;30.75;27.25;;;;;34.15;32.07;101465.03;6358247;22;50847;-67
2023/07/07 10:16:36;;;;;;;;;24.75;22.25;;;;;34.58;31.88;101459.44;6359877;22;49916;-65
2023/07/07 10:19:07;;;;;;;;;9.75;8.50;;;;;34.27;32.63;101457.91;6359741;22;49623;-67
2023/07/07 10:21:33;;;;;;;;;12.75;11.00;;;;;34.09;31.96;101457.28;6359642;22;49608;-66
2023/07/07 10:23:58;;;;;;;;;23.75;22.25;;;;;33.69;31.79;101442.69;6359729;22;50448;-64
2023/07/07 10:26:24;;;;;;;;;13.00;13.00;;;;;33.82;33.10;101449.06;6359042;22;49993;-67
2023/07/07 10:28:49;;;;;;;;;14.50;12.75;;;;;33.64;32.93;101450.25;6358352;22;49708;-67
2023/07/07 10:31:16;;;;;;;;;12.75;12.75;;;;;33.88;33.25;101456.88;6358577;22;50110;-67
2023/07/07 10:33:42;;;;;;;;;13.75;12.75;;;;;33.91;33.09;101432.13;6358307;22;50655;-73
2023/07/07 10:36:22;;;;;;;;;7.00;5.75;;;;;34.78;31.36;101453.47;6359166;22;49632;-73
2023/07/07 10:38:47;;;;;;;;;6.00;5.00;;;;;34.27;31.65;101447.00;6358937;22;50001;-71
2023/07/07 10:41:13;;;;;;;;;6.75;6.75;;;;;34.50;31.87;101448.16;6360287;22;50044;-72
2023/07/07 10:43:38;;;;;;;;;8.50;6.00;;;;;34.67;31.68;101447.88;6360130;22;50996;-71
2023/07/07 10:46:10;;;;;;;;;5.25;5.25;;;;;35.47;31.45;101446.72;6358584;22;49650;-69
2023/07/07 10:48:39;;;;;;;;;4.25;2.75;;;;;35.11;31.95;101443.88;6359590;22;49832;-69
2023/07/07 10:51:16;;;;;;;;;9.25;5.50;;;;;35.76;30.62;101446.44;6359717;22;49962;-68
2023/07/07 10:54:05;;;;;;;;;6.25;4.00;;;;;35.78;30.75;101447.19;6359331;22;50834;-68
2023/07/07 10:56:46;;;;;;;;;5.50;4.75;;;;;35.97;30.24;101443.97;6359631;22;49657;-66
2023/07/07 10:59:39;;;;;;;;;4.00;3.00;;;;;36.17;30.25;101443.34;6359804;22;50010;-75
2023/07/07 11:02:32;;;;;;;;;6.25;5.25;;;;;36.27;31.04;101446.25;6358900;22;49958;-68
2023/07/07 11:05:20;;;;;;;;;10.75;7.75;;;;;36.38;30.43;101428.03;6357999;22;50038;-68
2023/07/07 11:08:00;;;;;;;;;7.75;4.00;;;;;36.45;30.20;101424.84;6359965;22;49965;-68
2023/07/07 11:10:34;;;;;;;;;3.50;3.50;;;;;36.56;30.06;101431.22;6358708;22;49763;-68
2023/07/07 11:13:11;;;;;;;;;5.75;5.75;;;;;36.71;29.56;101417.34;6358686;22;49865;-68
2023/07/07 11:15:47;;;;;;;;;2.00;2.00;;;;;36.56;28.99;101419.41;6358313;22;50988;-68
2023/07/07 11:18:35;;;;;;;;;6.50;6.25;;;;;36.48;28.61;101400.00;6359931;22;49800;-69
2023/07/07 11:21:14;;;;;;;;;3.50;3.50;;;;;36.78;28.77;101411.28;6359719;22;49930;-68
2023/07/07 11:24:11;;;;;;;;;2.25;2.00;;;;;36.95;28.20;101408.06;6359749;22;49577;-69
2023/07/07 11:27:06;;;;;;;;;3.00;2.00;;;;;36.89;28.02;101399.50;6359798;22;50007;-68
2023/07/07 11:29:48;;;;;;;;;5.50;3.00;;;;;36.87;28.58;101402.38;6359967;22;49697;-68
2023/07/07 11:32:58;;;;;;;;;3.50;3.50;;;;;36.69;28.29;101391.00;6358750;22;50110;-70
2023/07/07 11:35:31;;;;;;;;;2.25;2.25;;;;;35.90;28.50;101363.47;6229755;22;49951;-70
2023/07/07 11:38:33;;;;;;;;;5.25;3.50;;;;;37.05;28.19;101385.44;6230143;22;51006;-71
2023/07/07 11:41:11;;;;;;;;;3.00;3.00;;;;;36.85;29.38;101381.56;6230202;22;50176;-72
2023/07/07 11:44:02;;;;;;;;;3.50;3.50;;;;;36.97;28.55;101373.28;6230676;22;49877;-71
2023/07/07 11:46:52;;;;;;;;;3.00;3.00;;;;;37.07;28.63;101367.06;6230987;22;50160;-72
2023/07/07 11:49:39;;;;;;;;;5.25;5.00;;;;;37.08;28.53;101364.19;6230065;22;49858;-72
2023/07/07 11:52:16;;;;;;;;;6.00;5.25;;;;;37.03;28.57;101368.28;6230963;22;49751;-71
2023/07/07 11:55:00;;;;;;;;;3.50;3.50;;;;;36.98;28.77;101363.19;6230413;22;49914;-71
2023/07/07 12:00:51;;;;;;;;;103.00;96.75;;;;;35.74;29.63;101353.69;5013532;28;50721;-74
2023/07/07 12:03:42;;;;;;;;;120.50;119.75;;;;;35.03;30.03;101353.53;4990325;28;49729;-74
2023/07/07 12:06:19;;;;;;;;;114.67;113.33;;;;;35.75;29.05;101362.75;4986593;28;49885;-74
2023/07/07 12:09:00;;;;;;;;;116.80;116.40;;;;;35.72;29.33;101363.00;4998603;28;51452;-75
2023/07/07 12:11:28;;;;;;;;;112.67;109.00;;;;;35.58;30.26;101354.94;4988603;28;49927;-74
2023/07/07 12:14:19;;;;;;;;;119.00;117.00;;;;;35.86;29.55;101362.81;4987232;28;49848;-74
2023/07/07 12:16:48;;;;;;;;;117.00;115.00;;;;;35.66;29.33;101358.84;4989584;28;50059;-74
2023/07/07 12:19:33;;;;;;;;;116.60;115.60;;;;;35.94;29.22;101357.66;4987381;28;50737;-76
2023/07/07 12:22:01;;;;;;;;;117.60;116.80;;;;;35.64;29.51;101358.09;4988175;28;50164;-74
2023/07/07 12:24:42;;;;;;;;;114.25;114.00;;;;;35.85;29.14;101351.00;4991396;28;49765;-74
2023/07/07 12:27:25;;;;;;;;;118.67;118.67;;;;;36.20;28.63;101352.94;4996764;28;49588;-73
2023/07/07 12:29:52;;;;;;;;;120.00;120.00;;;;;35.78;28.87;101340.66;4988655;28;51530;-73
2023/07/07 12:32:18;;;;;;;;;119.33;117.00;;;;;35.95;28.84;101353.06;4988796;28;49771;-73
2023/07/07 12:34:49;;;;;;;;;116.00;116.00;;;;;36.49;28.22;101344.34;5000755;28;51011;-73
2023/07/07 12:37:20;;;;;;;;;110.33;106.67;;;;;36.59;28.52;101340.75;4994349;28;50022;-73
2023/07/07 12:39:59;;;;;;;;;75.00;63.50;;;;;36.65;28.32;101310.16;4994587;28;50171;-73
2023/07/07 12:42:28;;;;;;;;;86.50;70.25;;;;;36.75;28.88;101331.28;4992834;28;50093;-73
2023/07/07 12:44:55;;;;;;;;;77.75;63.75;;;;;36.69;28.83;101329.94;4985556;28;50349;-73
2023/07/07 12:47:31;;;;;;;;;99.00;87.00;;;;;37.20;28.53;101326.72;4985743;28;49992;-73
2023/07/07 12:50:00;;;;;;;;;118.00;118.00;;;;;37.05;29.49;101322.50;5002778;28;52009;-73
2023/07/07 12:52:30;;;;;;;;;116.33;116.33;;;;;37.25;29.16;101318.97;4992198;28;49798;-73
2023/07/07 12:55:13;;;;;;;;;70.00;58.75;;;;;37.55;28.75;101301.91;4991619;28;49890;-73
2023/07/07 12:57:57;;;;;;;;;97.00;85.33;;;;;37.80;28.29;101326.25;4988295;28;49790;-77
2023/07/07 13:00:31;;;;;;;;;105.33;100.33;;;;;37.66;27.81;101318.31;4986241;28;50894;-73
2023/07/07 13:03:10;;;;;;;;;74.00;62.75;;;;;37.67;27.86;101316.44;4987304;28;50124;-73
2023/07/07 13:05:46;;;;;;;;;107.67;101.67;;;;;37.62;28.23;101302.25;4990139;28;50273;-73
2023/07/07 13:08:35;;;;;;;;;111.67;111.67;;;;;37.75;27.86;101305.69;4987834;28;50050;-73
2023/07/07 13:11:17;;;;;;;;;112.33;112.33;;;;;37.62;28.42;101305.84;4978846;28;50094;-73
2023/07/07 13:13:45;;;;;;;;;88.00;73.50;;;;;37.79;27.89;101305.31;4978208;28;49808;-73
2023/07/07 13:16:13;;;;;;;;;95.33;81.33;;;;;37.69;28.19;101309.81;4975532;28;50112;-73
2023/07/07 13:18:39;;;;;;;;;63.50;55.25;;;;;37.40;27.85;101306.78;4979578;28;49921;-73
2023/07/07 13:21:05;;;;;;;;;78.00;65.50;;;;;37.51;27.73;101308.63;4976933;28;50781;-73
2023/07/07 13:23:42;;;;;;;;;118.00;118.00;;;;;37.85;28.05;101309.41;4980116;28;49988;-74
2023/07/07 13:26:28;;;;;;;;;100.33;90.33;;;;;38.17;28.02;101311.25;4984104;28;49727;-73
2023/07/07 13:29:03;;;;;;;;;116.00;116.00;;;;;37.92;28.11;101302.38;4977080;28;49722;-75
2023/07/07 13:31:28;;;;;;;;;119.00;119.00;;;;;36.95;28.84;101309.56;4979720;28;51311;-78
2023/07/07 13:33:53;;;;;;;;;114.67;114.67;;;;;37.00;28.46;101301.00;4974573;28;50067;-82
2023/07/07 13:36:19;;;;;;;;;2.50;2.00;;;;;37.25;27.88;101303.44;4977105;28;50043;-71
2023/07/07 13:38:47;;;;;;;;;3.00;1.00;;;;;37.92;27.86;101299.66;4971638;28;49837;-69
2023/07/07 13:41:14;;;;;;;;;5.00;5.00;;;;;37.84;28.52;101290.38;4983718;28;50195;-70
2023/07/07 13:43:45;;;;;;;;;3.50;2.00;;;;;38.09;27.81;101293.59;4971157;28;49727;-75
2023/07/07 13:46:25;;;;;;;;;2.75;2.75;;;;;38.08;27.62;101285.50;4971168;28;49806;-71
2023/07/07 13:48:57;;;;;;;;;1.50;0.00;;;;;37.66;28.48;101295.53;4971602;28;49672;-72
2023/07/07 13:51:33;;;;;;;;;4.25;3.00;;;;;37.68;28.91;101294.38;4971010;28;51639;-71
2023/07/07 13:54:01;;;;;;;;;3.75;2.75;;;;;37.18;29.67;101279.44;4971112;28;50014;-72
2023/07/07 13:56:28;;;;;;;;;3.00;3.00;;;;;37.21;29.60;101288.25;4971198;28;49798;-72
2023/07/07 13:58:55;;;;;;;;;28.50;28.50;;;;;37.11;29.73;101290.03;4977011;28;51181;-72
2023/07/07 14:01:26;;;;;;;;;2.00;1.00;;;;;37.55;29.31;101287.34;4997571;28;49834;-73
2023/07/07 14:03:55;;;;;;;;;2.00;1.00;;;;;37.33;29.77;101289.13;4990597;28;49818;-72
2023/07/07 14:06:21;;;;;;;;;6.25;5.75;;;;;36.77;29.88;101280.06;4997891;28;49702;-73
2023/07/07 14:08:47;;;;;;;;;2.50;2.50;;;;;36.70;29.77;101271.50;4996518;28;50041;-73
2023/07/07 14:11:18;;;;;;;;;15.00;13.75;;;;;37.26;30.05;101274.22;4986847;28;51739;-72
2023/07/07 14:13:44;;;;;;;;;9.75;5.00;;;;;36.36;30.36;101249.59;5001989;28;49877;-72
2023/07/07 14:16:18;;;;;;;;;5.25;5.00;;;;;37.28;30.56;101268.59;4990799;28;49927;-72
2023/07/07 14:19:00;;;;;;;;;5.00;4.75;;;;;37.51;30.50;101270.28;4995834;28;50110;-72
2023/07/07 14:21:26;;;;;;;;;4.00;4.00;;;;;36.96;30.55;101263.91;4993848;28;50059;-72
2023/07/07 14:23:51;;;;;;;;;6.00;3.50;;;;;36.77;30.32;101267.28;4989362;28;49795;-72
2023/07/07 14:26:23;;;;;;;;;0.00;0.00;;;;;37.17;30.27;101264.88;4999434;28;49970;-73
2023/07/07 14:28:49;;;;;;;;;0.50;0.50;;;;;36.69;30.93;101256.09;4998762;28;49880;-72
2023/07/07 14:31:15;;;;;;;;;1.50;1.00;;;;;36.55;30.76;101251.72;5001998;28;50247;-72
2023/07/07 14:33:46;;;;;;;;;5.00;3.75;;;;;37.39;30.42;101252.16;4996287;28;49753;-72
2023/07/07 14:36:26;;;;;;;;;8.25;8.25;;;;;37.50;30.31;101252.13;5000092;28;49714;-73
2023/07/07 14:38:57;;;;;;;;;5.00;3.00;;;;;37.49;30.21;101250.38;4999134;28;50039;-73
2023/07/07 14:41:24;;;;;;;;;1.00;1.00;;;;;37.42;31.10;101252.75;4999052;28;49953;-71
2023/07/07 14:43:51;;;;;;;;;3.00;2.75;;;;;37.33;29.65;101249.94;4997676;28;50117;-71
2023/07/07 14:46:23;;;;;;;;;3.50;3.50;;;;;37.81;29.63;101239.41;4999212;28;49840;-71
2023/07/07 14:48:54;;;;;;;;;5.25;1.50;;;;;37.86;29.76;101242.66;4998388;28;49749;-71
2023/07/07 14:51:30;;;;;;;;;2.25;2.25;;;;;37.97;29.89;101228.00;4995729;28;51199;-74
2023/07/07 14:53:58;;;;;;;;;5.75;4.00;;;;;37.55;29.88;101211.53;4994764;28;49858;-73
2023/07/07 14:56:29;;;;;;;;;2.50;2.50;;;;;37.95;29.61;101225.41;4982235;28;49724;-73
2023/07/07 14:58:56;;;;;;;;;6.50;2.25;;;;;37.82;30.04;101216.50;4996731;28;49699;-75
2023/07/07 15:01:24;;;;;;;;;4.00;4.00;;;;;37.96;29.66;101216.19;5000116;28;50652;-73
2023/07/07 15:03:49;;;;;;;;;6.25;6.25;;;;;37.70;29.37;101217.53;4991019;28;49865;-73
2023/07/07 15:06:22;;;;;;;;;6.00;6.00;;;;;38.46;29.69;101216.34;4992397;28;49951;-73
2023/07/07 15:08:50;;;;;;;;;4.00;1.00;;;;;38.13;29.54;101211.09;5002469;28;49742;-74
2023/07/07 15:11:20;;;;;;;;;2.75;1.75;;;;;38.07;29.10;101204.25;4998977;28;51591;-73
2023/07/07 15:13:46;;;;;;;;;10.75;9.75;;;;;37.79;29.53;101195.72;5000918;28;50195;-73
2023/07/07 15:16:15;;;;;;;;;2.00;2.00;;;;;38.55;29.10;101203.66;4994981;28;55577;-73
2023/07/07 15:18:41;;;;;;;;;2.75;2.75;;;;;37.92;29.95;101203.72;4995910;28;49707;-73
2023/07/07 15:21:17;;;;;;;;;1.00;1.00;;;;;38.96;29.23;101199.03;4995181;28;49725;-73
2023/07/07 15:23:42;;;;;;;;;6.00;4.25;;;;;38.56;29.50;101197.16;5001622;28;49749;-73
2023/07/07 15:26:16;;;;;;;;;5.25;5.25;;;;;39.42;28.55;101190.16;4999932;28;72490;-73
2023/07/07 15:28:41;;;;;;;;;18.75;18.75;;;;;38.81;29.57;101195.84;4996421;28;50038;-72
2023/07/07 15:31:14;;;;;;;;;4.00;4.00;;;;;39.86;28.65;101191.47;4999286;28;69703;-73
2023/07/07 15:33:40;;;;;;;;;4.00;3.00;;;;;40.54;27.64;101196.81;4992051;28;49781;-73
2023/07/07 15:36:09;;;;;;;;;1.50;1.25;;;;;43.69;24.76;101217.63;4996100;28;66142;-73
2023/07/07 15:38:41;;;;;;;;;2.00;2.00;;;;;46.52;22.27;101217.28;4996217;28;50355;-73
2023/07/07 15:41:14;;;;;;;;;0.75;0.75;;;;;48.39;19.93;101208.78;4994429;28;51671;-73
2023/07/07 15:43:39;;;;;;;;;3.00;3.00;;;;;48.82;19.03;101210.50;4989113;28;49660;-72
2023/07/07 15:46:13;;;;;;;;;2.50;2.00;;;;;49.71;18.07;101183.28;4988790;28;67007;-73
2023/07/07 15:48:39;;;;;;;;;2.00;2.00;;;;;48.88;18.11;101198.53;4997430;28;50169;-73
2023/07/07 15:51:04;;;;;;;;;5.75;4.75;;;;;50.33;17.04;101197.78;4988723;28;50432;-72
2023/07/07 15:53:30;;;;;;;;;1.75;1.75;;;;;50.63;16.92;101186.97;4989047;28;50100;-75
2023/07/07 15:55:55;;;;;;;;;3.00;3.00;;;;;47.67;18.08;101170.09;4989317;28;49667;-73
2023/07/07 15:58:20;;;;;;;;;114.33;114.33;;;;;47.47;18.96;101181.03;4999288;28;50011;-72
2023/07/07 16:00:46;;;;;;;;;108.00;108.00;;;;;49.27;17.36;101193.06;4991520;28;63412;-70
2023/07/07 16:03:12;;;;;;;;;124.50;124.25;;;;;48.65;17.38;101184.94;4991394;28;50045;-70
2023/07/07 16:05:38;;;;;;;;;85.33;73.00;;;;;50.51;16.02;101184.00;5000515;28;49690;-70
2023/07/07 16:08:10;;;;;;;;;11.25;11.25;;;;;52.25;15.13;101182.56;4999831;28;49785;-70
2023/07/07 16:10:35;;;;;;;;;9.00;7.00;;;;;52.64;14.36;101178.44;4994615;28;50970;-70
2023/07/07 16:13:01;;;;;;;;;18.75;18.75;;;;;53.64;13.87;101175.03;4997349;28;64298;-70
2023/07/07 16:15:26;;;;;;;;;6.75;5.00;;;;;54.86;13.66;101161.78;4990035;28;68436;-69
2023/07/07 16:17:51;;;;;;;;;2.00;2.00;;;;;55.60;12.21;101160.88;4994613;28;57415;-70
2023/07/07 16:20:19;;;;;;;;;10.25;9.75;;;;;56.52;11.71;101161.09;4993103;28;71538;-70
2023/07/07 16:22:49;;;;;;;;;10.50;10.50;;;;;57.17;12.17;101152.81;4993512;28;49810;-70
2023/07/07 16:25:15;;;;;;;;;19.00;18.50;;;;;56.80;11.27;101162.84;4996110;28;49892;-68
2023/07/07 16:27:40;;;;;;;;;10.25;10.25;;;;;54.93;12.14;101155.19;4997933;28;49990;-68
2023/07/07 16:30:16;;;;;;;;;72.67;60.67;;;;;55.55;11.98;101149.53;5005651;28;50947;-68
2023/07/07 16:32:41;;;;;;;;;6.00;4.25;;;;;52.97;13.13;101149.94;4992989;28;49946;-70
2023/07/07 16:35:07;;;;;;;;;5.25;2.00;;;;;52.84;13.54;101134.19;4998412;28;55432;-69
2023/07/07 16:37:35;;;;;;;;;3.75;3.75;;;;;50.25;14.66;101122.63;4993476;28;50008;-69
2023/07/07 16:40:00;;;;;;;;;4.75;4.75;;;;;48.50;15.73;101120.13;4998182;28;50672;-69
2023/07/07 16:42:25;;;;;;;;;3.75;2.75;;;;;47.58;16.25;101124.03;4993728;28;49936;-69
2023/07/07 16:44:50;;;;;;;;;13.75;13.75;;;;;46.08;17.26;101126.56;4998679;28;50220;-70
2023/07/07 16:47:16;;;;;;;;;46.75;40.75;;;;;45.61;18.61;101121.28;4996923;28;63437;-69
2023/07/07 16:49:41;;;;;;;;;56.50;48.50;;;;;45.05;18.58;101120.69;5000946;28;74596;-70
2023/07/07 16:52:07;;;;;;;;;4.75;4.25;;;;;44.49;18.65;101107.00;5000418;28;65192;-71
2023/07/07 16:54:33;;;;;;;;;60.25;51.75;;;;;43.68;19.70;101116.38;5007312;28;50125;-70
2023/07/07 16:56:59;;;;;;;;;121.33;120.33;;;;;42.68;20.44;101120.25;4998450;28;50127;-71
2023/07/07 16:59:24;;;;;;;;;73.25;60.25;;;;;42.42;20.52;101123.06;5005526;28;50272;-70
2023/07/07 17:01:49;;;;;;;;;120.67;120.00;;;;;41.89;20.93;101113.13;4990338;28;49812;-71
2023/07/07 17:04:15;;;;;;;;;113.00;113.00;;;;;41.51;21.41;101114.41;4997779;28;67349;-71
2023/07/07 17:06:40;;;;;;;;;123.00;122.00;;;;;41.11;21.88;101104.72;4998502;28;49948;-71
2023/07/07 17:09:13;;;;;;;;;95.33;89.00;;;;;41.91;21.46;101112.97;4981994;28;51633;-71
2023/07/07 17:11:38;;;;;;;;;91.00;79.67;;;;;40.46;22.28;101111.41;4999345;28;50157;-71
2023/07/07 17:14:04;;;;;;;;;120.33;119.00;;;;;40.30;22.33;101104.63;5000043;28;50125;-71
2023/07/07 17:16:32;;;;;;;;;33.75;32.25;;;;;40.50;22.49;101110.94;4999607;28;51514;-70
2023/07/07 17:19:00;;;;;;;;;118.33;118.00;;;;;40.08;23.32;101107.78;4994182;28;50644;-70
2023/07/07 17:21:27;;;;;;;;;59.25;52.00;;;;;39.98;23.10;101110.56;4991249;28;49743;-70
2023/07/07 17:23:52;;;;;;;;;109.67;109.67;;;;;39.25;23.64;101105.75;4991826;28;49731;-70
2023/07/07 17:26:19;;;;;;;;;111.00;109.00;;;;;39.58;23.22;101094.34;4992459;28;49892;-70
2023/07/07 17:28:45;;;;;;;;;90.67;76.00;;;;;38.94;23.57;101120.47;4991621;28;57591;-70
2023/07/07 17:31:12;;;;;;;;;115.33;115.33;;;;;39.26;24.36;101110.22;4993045;28;49857;-71
2023/07/07 17:33:38;;;;;;;;;98.00;87.33;;;;;38.59;24.40;101111.84;4992980;28;49863;-71
2023/07/07 17:36:11;;;;;;;;;91.25;77.00;;;;;39.28;23.89;101108.19;4988363;28;50087;-70
2023/07/07 17:38:36;;;;;;;;;92.00;79.00;;;;;38.23;24.52;101113.34;4995217;28;49783;-70
2023/07/07 17:41:02;;;;;;;;;25.25;20.50;;;;;38.14;24.74;101111.41;4995025;28;70730;-71
2023/07/07 17:43:27;;;;;;;;;118.25;118.25;;;;;37.93;24.83;101103.19;4999456;28;60096;-70
2023/07/07 17:45:52;;;;;;;;;121.75;119.75;;;;;37.64;25.15;101106.66;4996606;28;60524;-70
2023/07/07 17:48:18;;;;;;;;;119.75;119.75;;;;;37.54;25.60;101094.72;5000639;28;60530;-71
2023/07/07 17:50:48;;;;;;;;;118.25;118.25;;;;;37.96;25.21;101105.69;4996644;28;64582;-70
2023/07/07 17:53:14;;;;;;;;;121.40;120.40;;;;;37.33;25.45;101102.94;5001678;28;49834;-70
2023/07/07 17:55:40;;;;;;;;;118.33;118.33;;;;;37.20;25.73;101100.38;4996896;28;50424;-70
2023/07/07 17:58:10;;;;;;;;;122.75;122.75;;;;;37.91;25.40;101103.34;4989745;28;50019;-70
2023/07/07 18:00:39;;;;;;;;;119.40;116.80;;;;;37.45;25.92;101104.66;4991013;28;49728;-70
2023/07/07 18:03:04;;;;;;;;;114.00;113.00;;;;;36.62;26.17;101105.28;5003386;28;49758;-73
2023/07/07 18:05:30;;;;;;;;;115.00;113.75;;;;;36.90;26.36;101114.81;4994955;28;66298;-71
2023/07/07 18:07:56;;;;;;;;;119.80;118.80;;;;;36.61;25.95;101111.75;5005295;28;49793;-70
2023/07/07 18:10:27;;;;;;;;;56.25;50.00;;;;;37.86;25.92;101108.38;4998498;28;50055;-77
2023/07/07 18:12:54;;;;;;;;;84.00;69.00;;;;;37.53;26.22;101106.69;4996964;28;50022;-72
2023/07/07 18:15:22;;;;;;;;;107.00;101.00;;;;;37.17;25.84;101108.00;4997025;28;49904;-72
2023/07/07 18:17:47;;;;;;;;;4.00;2.75;;;;;37.04;25.80;101105.41;4993949;28;50609;-73
2023/07/07 18:20:18;;;;;;;;;124.75;120.25;;;;;37.42;26.12;101107.63;4997405;28;49850;-73
2023/07/07 18:22:44;;;;;;;;;111.60;107.20;;;;;36.63;26.11;101108.88;4994300;28;49880;-75
2023/07/07 18:25:09;;;;;;;;;118.25;118.25;;;;;36.49;26.06;101098.25;4995780;28;50022;-76
2023/07/07 18:27:35;;;;;;;;;118.50;118.00;;;;;36.22;26.23;101099.47;4994976;28;50055;-76
2023/07/07 18:30:01;;;;;;;;;69.67;59.67;;;;;36.51;26.24;101109.91;4995461;28;49837;-75
2023/07/07 18:32:26;;;;;;;;;26.00;25.00;;;;;36.31;26.40;101104.19;4990664;28;49667;-74
2023/07/07 18:34:51;;;;;;;;;3.00;3.00;;;;;36.59;26.55;101118.34;5005498;28;61946;-76
2023/07/07 18:37:16;;;;;;;;;4.00;4.00;;;;;36.49;26.32;101114.63;4991515;28;73051;-76
2023/07/07 18:39:46;;;;;;;;;12.75;11.25;;;;;36.42;26.47;101111.53;4992090;28;55530;-75
2023/07/07 18:42:12;;;;;;;;;118.00;116.75;;;;;35.88;26.91;101106.78;4994302;28;49924;-76
2023/07/07 18:44:37;;;;;;;;;118.00;116.25;;;;;35.91;26.82;101111.16;4993445;28;55932;-76
2023/07/07 18:47:02;;;;;;;;;76.50;64.00;;;;;35.96;26.65;101111.63;4995354;28;56606;-73